Time;durP1;ratioP1;P1;durP2;ratioP2;P2;SDS_P1;SDS_P2;PMS_P1;PMS_P2;Temp;Humidity;BMP_temperature;BMP_pressure;BME280_temperature;BME280_humidity;BME280_pressure;Samples;Min_cycle;Max_cycle;Signal;HPM_P1;HPM_P2
2024/03/12 00:01:34;;;;;;;3.35;2.50;;;;;;;9.12;100.00;100626.53;6266378;28;20053;-77
2024/03/12 00:04:35;;;;;;;3.88;2.10;;;;;;;9.13;100.00;100624.78;6260841;28;20053;-77
2024/03/12 00:07:39;;;;;;;2.47;1.48;;;;;;;9.12;100.00;100633.53;6258540;28;20357;-77
2024/03/12 00:10:41;;;;;;;3.90;2.40;;;;;;;9.12;100.00;100629.16;6254197;28;20190;-77
2024/03/12 00:13:42;;;;;;;2.92;2.00;;;;;;;9.14;100.00;100635.19;6254669;28;20438;-77
2024/03/12 00:16:43;;;;;;;4.25;2.17;;;;;;;9.13;100.00;100641.34;6254414;28;20050;-77
2024/03/12 00:19:45;;;;;;;2.25;1.75;;;;;;;9.12;100.00;100639.63;6253975;28;20051;-77
2024/03/12 00:22:49;;;;;;;2.95;1.65;;;;;;;9.08;100.00;100638.13;6254141;28;20491;-77
2024/03/12 00:25:50;;;;;;;5.00;2.10;;;;;;;9.06;100.00;100652.22;6256329;28;20119;-77
2024/03/12 00:28:51;;;;;;;2.75;1.85;;;;;;;9.04;100.00;100652.28;6253777;28;20052;-77
2024/03/12 00:31:54;;;;;;;5.05;1.90;;;;;;;9.05;100.00;100650.50;6255037;28;20060;-77
2024/03/12 00:34:56;;;;;;;4.18;1.83;;;;;;;9.02;100.00;100653.28;6258873;28;20045;-77
2024/03/12 00:37:59;;;;;;;4.65;2.05;;;;;;;8.97;100.00;100653.50;6256773;28;20362;-77
2024/03/12 00:41:00;;;;;;;5.30;2.42;;;;;;;8.96;100.00;100646.56;6253916;28;20046;-77
2024/03/12 00:44:02;;;;;;;6.05;2.75;;;;;;;8.97;100.00;100655.28;6253556;28;20090;-77
2024/03/12 00:47:03;;;;;;;9.38;3.75;;;;;;;8.96;100.00;100659.66;6254879;28;20056;-78
2024/03/12 00:50:07;;;;;;;14.95;5.78;;;;;;;8.99;100.00;100663.91;6255734;28;20381;-77
2024/03/12 00:53:11;;;;;;;6.80;3.08;;;;;;;9.00;100.00;100663.00;6253557;28;20449;-78
2024/03/12 00:56:15;;;;;;;6.45;3.00;;;;;;;9.04;100.00;100667.19;6253300;28;20053;-77
2024/03/12 00:59:18;;;;;;;3.40;2.42;;;;;;;8.99;100.00;100666.53;6252862;28;20131;-77
2024/03/12 01:02:19;;;;;;;4.38;2.40;;;;;;;9.01;100.00;100670.78;6256703;28;20052;-78
2024/03/12 01:05:24;;;;;;;2.70;1.98;;;;;;;8.99;100.00;100675.22;6253313;28;20106;-77
2024/03/12 01:08:28;;;;;;;3.15;2.08;;;;;;;8.97;100.00;100674.47;6253269;28;20056;-77
2024/03/12 01:11:30;;;;;;;4.28;1.70;;;;;;;8.98;100.00;100673.53;6252856;28;20045;-77
2024/03/12 01:14:31;;;;;;;4.38;1.88;;;;;;;8.97;100.00;100686.72;6255369;28;20045;-78
2024/03/12 01:17:32;;;;;;;3.28;1.85;;;;;;;9.01;100.00;100677.78;6252964;28;20369;-77
2024/03/12 01:20:34;;;;;;;2.63;1.83;;;;;;;9.04;100.00;100685.53;6252569;28;20056;-77
2024/03/12 01:23:37;;;;;;;3.65;1.80;;;;;;;9.04;100.00;100683.75;6252561;28;20072;-77
2024/03/12 01:26:38;;;;;;;2.70;1.65;;;;;;;9.05;100.00;100684.59;6252729;28;20045;-77
2024/03/12 01:29:40;;;;;;;4.43;2.30;;;;;;;9.03;100.00;100683.81;6252875;28;20442;-77
2024/03/12 01:32:42;;;;;;;2.60;1.90;;;;;;;9.02;100.00;100676.88;6252518;28;20049;-77
2024/03/12 01:35:46;;;;;;;3.85;1.98;;;;;;;9.00;100.00;100682.19;6252349;28;20053;-77
2024/03/12 01:38:49;;;;;;;4.00;2.00;;;;;;;8.98;100.00;100683.19;6251983;28;20053;-77
2024/03/12 01:41:51;;;;;;;2.67;1.92;;;;;;;8.99;100.00;100684.88;6260127;28;20127;-77
2024/03/12 01:44:52;;;;;;;4.10;1.75;;;;;;;9.01;100.00;100681.25;6251995;28;20041;-77
2024/03/12 01:47:56;;;;;;;3.63;1.80;;;;;;;9.02;100.00;100685.56;6252505;28;20056;-77
2024/03/12 01:50:57;;;;;;;4.15;2.20;;;;;;;9.04;100.00;100686.38;6251713;28;20064;-77
2024/03/12 01:54:00;;;;;;;4.22;2.53;;;;;;;9.02;100.00;100687.34;6252268;28;20443;-77
2024/03/12 01:57:01;;;;;;;3.10;2.22;;;;;;;9.00;100.00;100690.06;6251841;28;20056;-77
2024/03/12 02:00:10;;;;;;;8.82;2.28;;;;;;;8.99;100.00;100690.09;6251787;28;20045;-77
2024/03/12 02:03:11;;;;;;;5.00;2.33;;;;;;;8.98;100.00;100686.63;6251849;28;20050;-78
2024/03/12 02:06:13;;;;;;;6.22;2.90;;;;;;;8.99;100.00;100690.09;6251875;28;20060;-77
2024/03/12 02:09:15;;;;;;;5.82;2.72;;;;;;;8.98;100.00;100688.41;6251446;28;20076;-77
2024/03/12 02:12:18;;;;;;;3.63;2.15;;;;;;;8.97;100.00;100689.34;6260927;28;20052;-77
2024/03/12 02:15:20;;;;;;;4.22;2.42;;;;;;;8.99;100.00;100690.09;6268801;28;20128;-77
2024/03/12 02:18:22;;;;;;;4.18;2.38;;;;;;;8.94;100.00;100692.94;6255182;28;20049;-77
2024/03/12 02:21:24;;;;;;;3.38;2.22;;;;;;;9.00;100.00;100694.44;6251171;28;20184;-77
2024/03/12 02:24:26;;;;;;;5.75;2.15;;;;;;;9.00;100.00;100694.44;6261547;28;20050;-77
2024/03/12 02:27:28;;;;;;;3.78;2.40;;;;;;;9.03;100.00;100689.03;6251599;28;20053;-77
2024/03/12 02:30:29;;;;;;;3.95;2.13;;;;;;;9.07;100.00;100687.97;6250761;28;20327;-77
2024/03/12 02:33:30;;;;;;;5.10;2.72;;;;;;;9.07;100.00;100701.09;6251512;28;20045;-78
2024/03/12 02:36:34;;;;;;;5.53;2.05;;;;;;;9.10;100.00;100704.41;6251150;28;20049;-77
2024/03/12 02:39:37;;;;;;;4.53;2.42;;;;;;;9.14;100.00;100697.25;6250964;28;20056;-77
2024/03/12 02:42:38;;;;;;;4.35;2.38;;;;;;;9.13;100.00;100692.94;6271501;22;20327;-75
2024/03/12 02:45:40;;;;;;;6.60;2.25;;;;;;;9.14;100.00;100695.47;6246603;28;20045;-75
2024/03/12 02:48:42;;;;;;;4.07;2.35;;;;;;;9.12;100.00;100702.56;6250877;28;20241;-76
2024/03/12 02:51:45;;;;;;;4.43;2.33;;;;;;;9.12;100.00;100702.56;6250574;28;20049;-76
2024/03/12 02:54:48;;;;;;;4.63;2.63;;;;;;;9.12;100.00;100699.94;6250618;28;20147;-75
2024/03/12 02:57:49;;;;;;;4.35;2.45;;;;;;;9.13;100.00;100695.56;6250675;28;20480;-76
2024/03/12 03:00:53;;;;;;;2.45;1.58;;;;;;;9.13;100.00;100693.78;6250354;28;20052;-75
2024/03/12 03:03:57;;;;;;;4.30;2.85;;;;;;;9.11;100.00;100697.41;6250658;28;20485;-76
2024/03/12 03:07:00;;;;;;;3.83;2.25;;;;;;;9.10;100.00;100699.16;6238188;28;20056;-75
2024/03/12 03:10:03;;;;;;;4.47;2.20;;;;;;;9.11;100.00;100705.25;6225887;28;20053;-75
2024/03/12 03:13:04;;;;;;;9.45;3.08;;;;;;;9.11;100.00;100700.00;6226373;28;20054;-76
2024/03/12 03:16:06;;;;;;;3.95;2.53;;;;;;;9.06;100.00;100697.63;6225830;28;20358;-75
2024/03/12 03:19:08;;;;;;;5.20;2.78;;;;;;;9.06;100.00;100700.25;6222577;28;20053;-75
2024/03/12 03:22:10;;;;;;;4.22;2.38;;;;;;;9.04;100.00;100703.88;6230594;28;20081;-76
2024/03/12 03:25:12;;;;;;;3.38;2.10;;;;;;;9.00;100.00;100699.69;6238517;28;20049;-74
2024/03/12 03:28:14;;;;;;;4.78;2.70;;;;;;;9.01;100.00;100704.00;6235387;28;20104;-74
2024/03/12 03:31:15;;;;;;;4.78;2.58;;;;;;;8.96;100.00;100714.72;6246961;28;20454;-74
2024/03/12 03:34:17;;;;;;;6.15;3.05;;;;;;;8.93;100.00;100712.22;6245852;28;20042;-75
2024/03/12 03:37:20;;;;;;;6.07;2.60;;;;;;;8.95;100.00;100715.63;6225575;28;20054;-75
2024/03/12 03:40:23;;;;;;;6.80;2.80;;;;;;;8.90;100.00;100714.97;6224668;28;20053;-75
2024/03/12 03:43:24;;;;;;;4.97;2.15;;;;;;;8.89;100.00;100716.75;6225365;28;20133;-76
2024/03/12 03:46:26;;;;;;;8.00;2.63;;;;;;;8.91;100.00;100713.22;6224390;28;20342;-75
2024/03/12 03:49:27;;;;;;;4.70;2.53;;;;;;;8.88;100.00;100709.81;6228183;28;20045;-76
2024/03/12 03:52:28;;;;;;;5.03;2.65;;;;;;;8.85;100.00;100715.19;6221995;28;20042;-75
2024/03/12 03:55:31;;;;;;;4.07;2.67;;;;;;;8.89;100.00;100722.00;6225179;28;20136;-76
2024/03/12 03:58:32;;;;;;;4.65;2.70;;;;;;;8.88;100.00;100716.84;6225236;28;20130;-76
2024/03/12 04:01:34;;;;;;;3.88;2.55;;;;;;;8.92;100.00;100721.00;6225082;28;20465;-75
2024/03/12 04:04:35;;;;;;;3.80;2.40;;;;;;;8.94;100.00;100720.94;6224576;28;20133;-76
2024/03/12 04:07:37;;;;;;;6.32;2.60;;;;;;;8.93;100.00;100719.25;6223826;28;20367;-75
2024/03/12 04:10:42;;;;;;;5.90;2.85;;;;;;;8.89;100.00;100726.38;6224585;28;20054;-75
2024/03/12 04:13:43;;;;;;;5.55;2.90;;;;;;;8.88;100.00;100732.56;6224503;28;20060;-76
2024/03/12 04:16:45;;;;;;;3.75;2.17;;;;;;;8.88;100.00;100743.03;6224856;28;20133;-75
2024/03/12 04:19:47;;;;;;;5.35;3.58;;;;;;;8.88;100.00;100745.66;6224252;28;20109;-76
2024/03/12 04:22:49;;;;;;;4.32;2.40;;;;;;;8.88;100.00;100751.75;6224717;28;20426;-76
2024/03/12 04:25:53;;;;;;;4.72;2.78;;;;;;;8.90;100.00;100751.66;6224285;28;20038;-76
2024/03/12 04:28:54;;;;;;;4.03;2.38;;;;;;;8.91;100.00;100752.53;6224321;28;20049;-75
2024/03/12 04:31:55;;;;;;;6.40;2.80;;;;;;;8.89;100.00;100765.69;6224752;28;20134;-75
2024/03/12 04:34:57;;;;;;;5.00;2.70;;;;;;;8.86;100.00;100764.09;6228611;28;20057;-76
2024/03/12 04:37:59;;;;;;;4.82;2.80;;;;;;;8.90;100.00;100764.78;6249275;28;20049;-75
2024/03/12 04:41:02;;;;;;;5.80;3.10;;;;;;;8.93;100.00;100761.16;6249137;28;20045;-75
2024/03/12 04:44:04;;;;;;;5.55;3.00;;;;;;;8.93;100.00;100755.94;6253398;28;20048;-76
2024/03/12 04:47:05;;;;;;;6.30;3.78;;;;;;;8.94;100.00;100768.09;6252790;28;20568;-76
2024/03/12 04:50:07;;;;;;;5.25;3.35;;;;;;;8.95;100.00;100770.69;6252545;28;20131;-76
2024/03/12 04:53:09;;;;;;;6.45;3.72;;;;;;;8.94;100.00;100775.97;6242218;28;20046;-76
2024/03/12 04:56:16;;;;;;;6.28;3.28;;;;;;;8.99;100.00;100772.22;6230116;28;20064;-76
2024/03/12 04:59:17;;;;;;;8.05;3.30;;;;;;;9.00;100.00;100778.31;6227971;28;20050;-76
2024/03/12 05:02:19;;;;;;;5.53;3.50;;;;;;;9.01;100.00;100783.50;6228062;28;20045;-75
2024/03/12 05:05:21;;;;;;;6.13;3.25;;;;;;;8.99;100.00;100777.44;6227945;28;20042;-75
2024/03/12 05:08:22;;;;;;;4.50;2.95;;;;;;;9.00;100.00;100784.41;6225168;28;20363;-76
2024/03/12 05:11:25;;;;;;;5.97;2.80;;;;;;;9.04;100.00;100782.50;6227569;28;20053;-75
2024/03/12 05:14:26;;;;;;;6.32;3.15;;;;;;;9.05;100.00;100794.69;6228080;28;20046;-75
2024/03/12 05:17:28;;;;;;;7.70;3.58;;;;;;;9.06;100.00;100793.75;6227731;28;20345;-76
2024/03/12 05:20:33;;;;;;;7.13;4.10;;;;;;;8.99;100.00;100798.41;6227038;28;20054;-74
2024/03/12 05:23:34;;;;;;;7.22;3.90;;;;;;;9.00;100.00;100789.66;6228062;28;20112;-75
2024/03/12 05:26:44;;;;;;;5.90;3.10;;;;;;;9.00;100.00;100800.16;6227585;28;20042;-76
2024/03/12 05:29:52;;;;;;;;;;;;;;;8.99;100.00;100808.06;6226174;28;20049;-74
2024/03/12 05:32:55;;;;;;;8.25;4.25;;;;;;;8.97;100.00;100808.13;6227695;28;19925;-76
2024/03/12 05:35:57;;;;;;;10.95;5.00;;;;;;;8.85;100.00;100817.41;6227879;28;20050;-75
2024/03/12 05:39:04;;;;;;;13.85;5.47;;;;;;;8.82;100.00;100828.03;6227598;28;20060;-74
2024/03/12 05:48:49;;;;;;;6.60;4.18;;;;;;;8.74;100.00;100832.75;6226029;28;20419;-75
2024/03/12 05:51:52;;;;;;;9.15;4.65;;;;;;;8.74;100.00;100831.91;6227707;28;20132;-77
2024/03/12 05:54:54;;;;;;;10.13;5.05;;;;;;;8.74;100.00;100832.75;6226853;28;20053;-76
2024/03/12 05:57:57;;;;;;;8.38;4.53;;;;;;;8.74;100.00;100838.00;6227839;28;20062;-75
2024/03/12 06:00:58;;;;;;;8.30;4.13;;;;;;;8.72;100.00;100839.84;6227393;28;20057;-75
2024/03/12 06:03:59;;;;;;;9.10;4.47;;;;;;;8.71;100.00;100843.38;6227602;28;20112;-75
2024/03/12 06:07:01;;;;;;;10.90;5.07;;;;;;;8.70;100.00;100846.91;6227298;28;20068;-76
2024/03/12 06:10:03;;;;;;;8.25;4.32;;;;;;;8.71;100.00;100848.59;6226965;28;20164;-76
2024/03/12 06:13:06;;;;;;;15.13;5.18;;;;;;;8.74;100.00;100847.63;6227772;28;20453;-74
2024/03/12 06:16:08;;;;;;;9.82;4.97;;;;;;;8.78;100.00;100857.91;6227220;28;20137;-75
2024/03/12 06:19:10;;;;;;;9.57;5.30;;;;;;;8.78;100.00;100857.06;6227074;28;20050;-75
2024/03/12 06:22:11;;;;;;;11.57;5.00;;;;;;;8.81;100.00;100870.88;6227335;28;20065;-76
2024/03/12 06:25:12;;;;;;;14.77;6.13;;;;;;;8.83;100.00;100862.94;6226889;28;20053;-74
2024/03/12 06:28:16;;;;;;;14.10;6.50;;;;;;;8.81;100.00;100862.16;6227147;28;20139;-75
2024/03/12 06:31:18;;;;;;;12.90;6.47;;;;;;;8.83;100.00;100865.56;6226507;28;20046;-74
2024/03/12 06:34:21;;;;;;;16.27;6.78;;;;;;;8.83;100.00;100871.66;6226776;28;20050;-75
2024/03/12 06:37:23;;;;;;;13.27;6.40;;;;;;;8.87;100.00;100878.47;6226936;28;20188;-76
2024/03/12 06:40:25;;;;;;;11.43;6.43;;;;;;;8.94;100.00;100884.28;6226701;28;20053;-75
2024/03/12 06:43:27;;;;;;;12.05;6.70;;;;;;;8.92;100.00;100880.88;6226606;28;20423;-74
2024/03/12 06:46:29;;;;;;;16.27;7.35;;;;;;;8.93;100.00;100889.59;6226707;28;20042;-74
2024/03/12 06:49:32;;;;;;;12.45;6.00;;;;;;;8.96;100.00;100890.31;6226115;28;20045;-75
2024/03/12 06:52:33;;;;;;;16.95;6.53;;;;;;;8.99;100.00;100892.78;6204252;28;20050;-76
2024/03/12 06:55:35;;;;;;;16.42;6.50;;;;;;;9.03;100.00;100891.72;6202088;28;20053;-76
2024/03/12 06:58:44;;;;;;;15.18;7.38;;;;;;;8.98;100.00;100896.31;6202573;28;20061;-76
2024/03/12 07:01:45;;;;;;;16.50;7.82;;;;;;;8.95;100.00;100895.59;6201809;28;20050;-76
2024/03/12 07:04:48;;;;;;;12.93;7.10;;;;;;;8.99;100.00;100900.66;6201515;28;20053;-74
2024/03/12 07:07:49;;;;;;;15.32;6.72;;;;;;;9.01;100.00;100903.22;6220654;28;20061;-74
2024/03/12 07:10:51;;;;;;;13.93;6.45;;;;;;;9.07;100.00;100909.03;6225854;28;20347;-74
2024/03/12 07:14:01;;;;;;;10.95;5.82;;;;;;;9.12;100.00;100914.91;6226331;28;20053;-75
2024/03/12 07:17:04;;;;;;;18.52;6.85;;;;;;;9.14;100.00;100913.09;6226188;28;20053;-74
2024/03/12 07:20:10;;;;;;;16.50;7.38;;;;;;;9.13;100.00;100907.94;6225638;28;20072;-75
2024/03/12 07:23:13;;;;;;;14.02;6.80;;;;;;;9.13;100.00;100911.41;6226075;28;20133;-75
2024/03/12 07:26:15;;;;;;;12.98;6.28;;;;;;;9.05;100.00;100924.00;6225901;28;20149;-76
2024/03/12 07:29:17;;;;;;;13.90;6.85;;;;;;;9.12;100.00;100922.78;6225407;28;20057;-76
2024/03/12 07:32:19;;;;;;;13.38;6.85;;;;;;;9.13;100.00;100926.28;6226222;28;20050;-76
2024/03/12 07:35:20;;;;;;;17.50;8.25;;;;;;;9.14;100.00;100928.81;6225753;28;20042;-76
2024/03/12 07:38:22;;;;;;;18.55;9.20;;;;;;;9.22;100.00;100935.47;6226060;28;20351;-76
2024/03/12 07:41:24;;;;;;;20.00;10.43;;;;;;;9.26;100.00;100937.88;6225513;28;20454;-76
2024/03/12 07:44:26;;;;;;;26.02;9.70;;;;;;;9.31;100.00;100938.56;6225465;28;20200;-76
2024/03/12 07:47:30;;;;;;;20.23;10.18;;;;;;;9.33;100.00;100939.34;6226022;28;20052;-75
2024/03/12 07:50:33;;;;;;;25.70;10.30;;;;;;;9.37;100.00;100942.69;6225311;28;20141;-76
2024/03/12 07:53:34;;;;;;;24.85;12.13;;;;;;;9.38;100.00;100947.84;6225584;28;20366;-75
2024/03/12 07:56:35;;;;;;;34.00;13.75;;;;;;;9.48;100.00;100942.19;6225396;28;20049;-77
2024/03/12 07:59:38;;;;;;;30.85;13.00;;;;;;;9.37;100.00;100953.16;6225421;28;20064;-77
2024/03/12 08:02:40;;;;;;;27.85;12.65;;;;;;;9.30;100.00;100959.59;6225617;28;20046;-76
2024/03/12 08:05:41;;;;;;;31.25;14.10;;;;;;;9.30;100.00;100956.97;6216222;28;20049;-77
2024/03/12 08:08:42;;;;;;;34.10;15.65;;;;;;;9.41;100.00;100962.59;6223658;28;20370;-77
2024/03/12 08:11:44;;;;;;;32.83;13.70;;;;;;;9.53;100.00;100961.19;6224744;28;20335;-77
2024/03/12 08:14:47;;;;;;;35.20;14.43;;;;;;;9.64;100.00;100966.81;6225007;28;20046;-77
2024/03/12 08:17:48;;;;;;;35.25;14.85;;;;;;;9.61;100.00;100964.31;6223971;28;20050;-76
2024/03/12 08:20:50;;;;;;;39.92;16.02;;;;;;;9.68;100.00;100967.53;6228943;28;20053;-76
2024/03/12 08:23:51;;;;;;;35.67;15.00;;;;;;;9.68;100.00;100970.16;6229702;28;20048;-77
2024/03/12 08:26:54;;;;;;;39.53;15.65;;;;;;;9.70;100.00;100973.53;6224541;28;21335;-76
2024/03/12 08:29:57;;;;;;;33.75;15.07;;;;;;;9.74;100.00;100967.22;6229103;28;20188;-76
2024/03/12 08:32:58;;;;;;;40.10;17.02;;;;;;;9.63;100.00;100978.22;6229897;28;20045;-76
2024/03/12 08:36:01;;;;;;;38.17;16.40;;;;;;;9.56;100.00;100982.03;6229443;28;20049;-75
2024/03/12 08:39:04;;;;;;;35.40;14.50;;;;;;;9.72;100.00;100984.81;6229408;28;20061;-76
2024/03/12 08:42:09;;;;;;;35.50;14.85;;;;;;;9.57;100.00;100989.84;6229188;28;20050;-75
2024/03/12 08:45:14;;;;;;;42.42;17.38;;;;;;;9.54;100.00;100994.38;6302519;22;20437;-77
2024/03/12 08:48:16;;;;;;;43.40;18.10;;;;;;;9.54;100.00;100992.63;6295070;28;20048;-78
2024/03/12 08:51:18;;;;;;;42.75;17.48;;;;;;;9.61;100.00;100996.66;6282328;28;20056;-77
2024/03/12 08:54:19;;;;;;;37.25;17.00;;;;;;;9.63;100.00;101002.69;6303277;28;20045;-78
2024/03/12 08:57:21;;;;;;;44.42;17.33;;;;;;;9.73;100.00;101004.91;6303416;28;20048;-78
2024/03/12 09:00:24;;;;;;;45.40;17.00;;;;;;;9.79;100.00;101012.47;6302993;28;20052;-78
2024/03/12 09:03:26;;;;;;;42.20;18.23;;;;;;;9.70;100.00;101010.28;6301941;28;20055;-77
2024/03/12 09:06:27;;;;;;;43.78;18.55;;;;;;;9.70;100.00;101003.25;6270796;28;20045;-78
2024/03/12 09:09:28;;;;;;;46.20;18.15;;;;;;;9.73;100.00;101013.63;6277232;28;20056;-77
2024/03/12 09:12:30;;;;;;;44.63;19.13;;;;;;;9.74;100.00;101012.69;6278154;28;20449;-78
2024/03/12 09:15:33;;;;;;;41.75;18.30;;;;;;;9.73;100.00;101016.25;6264556;28;20081;-77
2024/03/12 09:18:34;;;;;;;44.55;18.70;;;;;;;9.76;100.00;101013.47;6253250;28;20049;-77
2024/03/12 09:21:37;;;;;;;44.72;18.33;;;;;;;9.72;100.00;101019.78;6265985;28;20437;-77
2024/03/12 09:24:39;;;;;;;54.03;19.48;;;;;;;9.68;100.00;101022.63;6273419;28;20045;-77
2024/03/12 09:27:40;;;;;;;49.05;18.70;;;;;;;9.63;100.00;101031.56;6277836;28;20041;-77
2024/03/12 09:30:43;;;;;;;46.40;19.13;;;;;;;9.63;100.00;101028.94;6277380;28;20056;-78
2024/03/12 09:33:44;;;;;;;49.33;19.17;;;;;;;9.68;100.00;101028.72;6277726;28;20071;-78
2024/03/12 09:36:46;;;;;;;36.53;15.85;;;;;;;9.70;100.00;101028.66;6277384;28;20052;-78
2024/03/12 09:39:51;;;;;;;43.85;19.33;;;;;;;9.68;100.00;101028.72;6277352;28;20079;-77
2024/03/12 09:42:56;;;;;;;47.33;19.67;;;;;;;9.74;100.00;101030.22;6277223;28;20334;-78
2024/03/12 09:46:01;;;;;;;43.38;18.20;;;;;;;9.70;100.00;101039.16;6276492;28;20053;-77
2024/03/12 09:49:02;;;;;;;43.95;19.08;;;;;;;9.58;100.00;101045.78;6277032;28;20045;-77
2024/03/12 09:52:05;;;;;;;45.33;19.17;;;;;;;9.71;100.00;101043.47;6277201;28;20056;-77
2024/03/12 09:55:10;;;;;;;44.28;18.80;;;;;;;9.71;100.00;101048.72;6276837;28;20425;-77
2024/03/12 09:58:12;;;;;;;51.33;20.17;;;;;;;9.62;100.00;101048.19;6276942;28;20442;-78
2024/03/12 10:01:14;;;;;;;60.97;21.17;;;;;;;9.63;100.00;101047.31;6276488;28;20460;-77
2024/03/12 10:04:16;;;;;;;51.03;21.52;;;;;;;9.53;100.00;101050.38;6276866;28;20054;-77
2024/03/12 10:07:19;;;;;;;57.75;21.30;;;;;;;9.50;100.00;101061.88;6277015;28;20437;-77
2024/03/12 10:10:20;;;;;;;57.30;20.17;;;;;;;9.63;100.00;101057.78;6276348;28;20376;-77
2024/03/12 10:13:23;;;;;;;57.28;21.55;;;;;;;9.50;100.00;101059.25;6276883;28;20466;-76
2024/03/12 10:16:27;;;;;;;63.40;22.95;;;;;;;9.44;100.00;101061.28;6276298;28;20049;-76
2024/03/12 10:19:29;;;;;;;54.00;22.42;;;;;;;9.46;100.00;101069.94;6275482;28;20330;-77
2024/03/12 10:22:31;;;;;;;61.38;22.50;;;;;;;9.33;100.00;101070.47;6276511;28;20064;-78
2024/03/12 10:25:34;;;;;;;63.65;22.67;;;;;;;9.31;100.00;101069.69;6276676;28;20497;-77
2024/03/12 10:28:36;;;;;;;60.50;22.60;;;;;;;9.26;100.00;101066.38;6276614;28;20052;-76
2024/03/12 10:31:44;;;;;;;60.47;22.95;;;;;;;9.35;100.00;101073.00;6275993;28;20052;-75
2024/03/12 10:34:45;;;;;;;67.93;23.40;;;;;;;9.38;100.00;101073.75;6276087;28;20084;-76
2024/03/12 10:37:50;;;;;;;63.33;21.83;;;;;;;9.42;100.00;101063.97;6276124;28;20048;-76
2024/03/12 10:40:51;;;;;;;54.35;20.00;;;;;;;9.46;100.00;101072.56;6275329;28;20438;-75
2024/03/12 10:44:03;;;;;;;66.40;23.70;;;;;;;9.45;100.00;101073.47;6276004;28;20048;-76
2024/03/12 10:47:07;;;;;;;55.25;21.25;;;;;;;9.54;100.00;101075.72;6275775;28;20350;-76
2024/03/12 10:50:10;;;;;;;65.10;22.75;;;;;;;9.51;100.00;101081.09;6275363;28;20358;-76
2024/03/12 10:53:12;;;;;;;57.45;22.88;;;;;;;9.45;100.00;101083.97;6275526;28;20053;-77
2024/03/12 10:56:14;;;;;;;56.10;22.95;;;;;;;9.38;100.00;101086.84;6275525;28;20049;-77
2024/03/12 10:59:17;;;;;;;55.42;21.55;;;;;;;9.30;100.00;101088.09;6275594;28;20140;-76
2024/03/12 11:02:21;;;;;;;59.65;22.15;;;;;;;9.30;100.00;101085.47;6275658;28;20327;-77
2024/03/12 11:05:25;;;;;;;71.15;22.98;;;;;;;9.31;100.00;101087.19;6275422;28;20052;-76
2024/03/12 11:08:27;;;;;;;67.57;22.23;;;;;;;9.39;100.00;101088.56;6275288;28;20520;-76
2024/03/12 11:11:29;;;;;;;60.72;21.42;;;;;;;9.47;100.00;101084.75;6275157;28;20340;-76
2024/03/12 11:14:31;;;;;;;61.10;23.15;;;;;;;9.46;100.00;101089.16;6275626;28;20131;-77
2024/03/12 11:17:34;;;;;;;62.35;22.83;;;;;;;9.48;100.00;101102.19;6275350;28;20060;-78
2024/03/12 11:20:39;;;;;;;56.17;21.58;;;;;;;9.55;100.00;101101.03;6274901;28;20049;-76
2024/03/12 11:23:41;;;;;;;55.90;20.88;;;;;;;9.52;100.00;101095.91;6275109;28;20053;-77
2024/03/12 11:26:50;;;;;;;57.00;22.63;;;;;;;9.55;100.00;101099.25;6275137;28;20048;-76
2024/03/12 11:30:19;;;;;;;56.65;20.90;;;;;;;9.75;100.00;101093.13;6266443;28;20045;-76
2024/03/12 11:33:52;;;;;;;54.80;20.33;;;;;;;10.03;100.00;101084.84;6264350;28;20049;-75
2024/03/12 11:36:56;;;;;;;55.78;20.88;;;;;;;10.15;100.00;101089.56;6229034;28;20049;-77
2024/03/12 11:40:26;;;;;;;52.33;19.88;;;;;;;10.08;100.00;101092.53;6274167;28;20052;-77
2024/03/12 11:43:35;;;;;;;53.72;21.20;;;;;;;9.97;100.00;101089.53;6272965;28;20127;-76
2024/03/12 11:46:44;;;;;;;50.03;18.80;;;;;;;9.99;100.00;101093.81;6272748;28;20048;-76
2024/03/12 11:49:46;;;;;;;49.77;19.10;;;;;;;10.06;100.00;101097.84;6257869;28;20465;-76
2024/03/12 11:52:48;;;;;;;46.83;17.88;;;;;;;10.03;100.00;101092.72;6259678;28;20044;-76
2024/03/12 11:55:57;;;;;;;54.45;19.33;;;;;;;10.00;100.00;101094.66;6271059;28;20049;-76
2024/03/12 11:59:01;;;;;;;48.53;17.55;;;;;;;10.02;100.00;101096.28;6266017;28;20052;-77
2024/03/12 12:02:02;;;;;;;51.65;18.02;;;;;;;10.00;100.00;101097.28;6270919;28;20178;-76
2024/03/12 12:05:09;;;;;;;39.60;15.27;;;;;;;10.07;100.00;101093.44;6276766;28;20045;-76
2024/03/12 12:08:10;;;;;;;44.85;16.17;;;;;;;10.03;100.00;101095.34;6271382;28;20045;-76
2024/03/12 12:11:12;;;;;;;40.35;15.52;;;;;;;10.17;100.00;101097.34;6269713;28;20077;-78
2024/03/12 12:14:14;;;;;;;42.28;15.23;;;;;;;10.25;100.00;101104.91;6276955;28;20543;-78
2024/03/12 12:17:21;;;;;;;46.47;15.65;;;;;;;10.17;100.00;101099.97;6254592;28;20131;-78
2024/03/12 12:20:26;;;;;;;40.67;14.43;;;;;;;10.29;100.00;101102.06;6254507;28;20346;-78
2024/03/12 12:23:27;;;;;;;39.00;14.80;;;;;;;10.42;100.00;101099.75;6254580;28;20050;-76
2024/03/12 12:26:30;;;;;;;46.50;16.63;;;;;;;10.41;100.00;101100.66;6277924;28;20048;-76
2024/03/12 12:29:33;;;;;;;37.00;14.90;;;;;;;10.46;100.00;101100.44;6278593;28;20122;-76
2024/03/12 12:32:37;;;;;;;35.60;14.45;;;;;;;10.61;100.00;101103.19;6278027;28;20044;-76
2024/03/12 12:35:41;;;;;;;45.38;15.30;;;;;;;10.72;100.00;101112.31;6278842;28;20052;-76
2024/03/12 12:38:44;;;;;;;37.42;15.02;;;;;;;10.61;100.00;101107.59;6278162;28;20126;-76
2024/03/12 12:41:48;;;;;;;33.63;13.00;;;;;;;10.45;100.00;101101.38;6266428;28;20045;-77
2024/03/12 12:44:51;;;;;;;30.38;11.75;;;;;;;10.37;100.00;101101.72;6256282;28;20152;-76
2024/03/12 12:47:52;;;;;;;36.25;13.93;;;;;;;10.33;100.00;101106.28;6254078;28;20049;-77
2024/03/12 12:50:57;;;;;;;31.08;13.88;;;;;;;10.27;100.00;101108.34;6253475;28;20056;-76
2024/03/12 12:54:02;;;;;;;31.08;13.02;;;;;;;10.36;100.00;101114.00;6254043;28;20152;-78
2024/03/12 12:57:04;;;;;;;33.22;11.40;;;;;;;10.32;100.00;101112.44;6253717;28;20053;-77
2024/03/12 13:00:17;;;;;;;27.42;11.85;;;;;;;10.39;100.00;101110.38;6253425;28;20131;-77
2024/03/12 13:03:20;;;;;;;26.30;10.77;;;;;;;10.27;100.00;101121.47;6253204;28;20046;-77
2024/03/12 13:06:24;;;;;;;23.67;10.32;;;;;;;10.25;100.00;101120.69;6267121;28;20049;-77
2024/03/12 13:09:31;;;;;;;27.10;9.48;;;;;;;10.19;100.00;101121.78;6253082;28;20045;-77
2024/03/12 13:12:33;;;;;;;24.73;10.35;;;;;;;10.12;100.00;101115.09;6257095;28;20071;-76
2024/03/12 13:15:35;;;;;;;23.25;9.52;;;;;;;10.02;100.00;101125.16;6267990;28;20045;-76
2024/03/12 13:18:37;;;;;;;21.33;10.18;;;;;;;9.87;100.00;101120.63;6253513;28;20057;-77
2024/03/12 13:21:40;;;;;;;18.83;8.77;;;;;;;9.85;100.00;101119.81;6256436;28;20437;-77
2024/03/12 13:24:43;;;;;;;25.42;10.23;;;;;;;9.91;100.00;101127.44;6259503;28;20045;-77
2024/03/12 13:27:45;;;;;;;19.92;8.25;;;;;;;9.88;100.00;101124.94;6253276;28;20052;-78
2024/03/12 13:30:47;;;;;;;20.58;9.23;;;;;;;9.81;100.00;101124.38;6256354;28;20053;-78
2024/03/12 13:33:49;;;;;;;17.05;7.55;;;;;;;9.93;100.00;101130.81;6277648;28;20056;-78
2024/03/12 13:36:51;;;;;;;18.77;8.32;;;;;;;9.79;100.00;101134.06;6274000;28;20327;-78
2024/03/12 13:39:53;;;;;;;19.58;8.13;;;;;;;9.77;100.00;101141.16;6265004;28;20111;-77
2024/03/12 13:42:54;;;;;;;18.38;7.60;;;;;;;9.63;100.00;101146.16;6263031;28;20060;-77
2024/03/12 13:45:57;;;;;;;16.75;8.30;;;;;;;9.56;100.00;101136.84;6252831;28;20052;-77
2024/03/12 13:49:11;;;;;;;18.88;6.88;;;;;;;9.50;100.00;101137.97;6251973;28;20049;-76
2024/03/12 13:52:14;;;;;;;13.68;7.22;;;;;;;9.45;100.00;101142.56;6252820;28;20084;-76
2024/03/12 13:55:16;;;;;;;16.63;6.38;;;;;;;9.44;100.00;101148.69;6252165;28;20085;-76
2024/03/12 13:58:18;;;;;;;16.75;7.30;;;;;;;9.44;100.00;101153.09;6252670;28;20049;-76
2024/03/12 14:01:20;;;;;;;19.77;7.03;;;;;;;9.39;100.00;101154.13;6252993;28;20061;-76
2024/03/12 14:04:23;;;;;;;18.35;7.55;;;;;;;9.40;100.00;101154.97;6263911;28;20041;-76
2024/03/12 14:07:25;;;;;;;16.08;8.13;;;;;;;9.36;100.00;101159.53;6264163;28;20346;-76